• Join FlightAware (Why Join?)
  • Login
  • US Flag 
09:57PM EDT


 

Airport Tracker/Info


-or-


 

Live Flight TrackerFlight Track Log ✈ DAL6035 ✈ 14-Jul-2013 ✈ KLGA - KMHT

Flight Track Log - Related Links

Times and Time Zones

All times are in EDT time to prevent confusion due to time zone crossing. See the DAL6035 flight status page for this flight to view local times or setup timezone preferences in your user account.

Time Position Orientation Groundspeed Altitude Reporting Facility
EDT Latitude Longitude Course Direction KTS MPH feet Rate Location/Type
04:49PM 40.8333 -73.9000 27° Northeast 188 216 2,300  Level New York TRACON
04:50PM 40.9000 -73.9167 349° North 245 282 4,100 2,040 Climbing New York TRACON
04:51PM 41.1069 -73.6022 28° Northeast  Level FlightAware Approximate
04:51PM 40.9708 -73.8092 49° Northeast 288 331 7,500  Level Boston Center
04:52PM 41.1910 -73.5329 33° Northeast  Level FlightAware Approximate
04:52PM 41.0094 -73.7164 61° Northeast 288 331 9,700  Level Boston Center
04:53PM 41.2742 -73.4616 27° Northeast  Level FlightAware Approximate
04:53PM 41.0500 -73.6292 58° Northeast 298 343 11,100  Level Boston Center
04:54PM 41.3545 -73.4081 27° Northeast  Level FlightAware Approximate
04:54PM 41.1033 -73.5089 59° Northeast 329 379 12,200  Level Boston Center
04:55PM 41.1644 -73.4328 43° Northeast 343 395 13,200 1,140 Climbing Boston Center
04:56PM 41.2689 -73.3928 16° North 332 382 14,500 1,320 Climbing Boston Center
04:57PM 41.3567 -73.3611 15° North 349 402 15,900 1,080 Climbing Boston Center
04:58PM 41.4592 -73.3181 17° North 349 402 17,000 480 Climbing Boston Center
04:59PM 41.5578 -73.2142 38° Northeast 375 432 17,000  Level Boston Center
05:00PM 41.6336 -73.1178 44° Northeast 394 453 17,000  Level Boston Center
05:01PM 41.7381 -73.0383 30° Northeast 402 463 17,000 -540 Level Boston Center
05:02PM 41.8344 -72.9694 28° Northeast 387 445 16,000 -960 Descending Boston Center
05:03PM 41.9325 -72.9033 27° Northeast 382 440 15,100 -540 Descending Boston Center
05:04PM 42.0267 -72.8369 28° Northeast 382 440 15,000 -60 Descending Boston Center
05:05PM 42.1228 -72.7675 28° Northeast 382 440 15,000  Level Boston Center
05:06PM 42.2000 -72.7147 27° Northeast 387 445 15,000  Level Boston Center
05:07PM 42.3147 -72.6339 28° Northeast 387 445 15,000  Level Boston Center
05:08PM 42.4108 -72.5667 27° Northeast 387 445 15,000 -480 Level Boston Center
05:09PM 42.5067 -72.4992 27° Northeast 387 445 14,100 -900 Descending Boston Center
05:11PM 42.5900 -72.4261 33° Northeast 387 445 13,100 -1,140 Descending Boston Center
05:13PM 42.7169 -72.1631 57° Northeast 378 435 10,500 -1,020 Descending Boston Center
05:14PM 42.7706 -72.0383 60° Northeast 358 412 10,100 -780 Descending Boston Center
05:15PM 42.8100 -71.9506 58° Northeast 321 369 9,000 -1,500 Descending Boston Center
05:16PM 42.8447 -71.8369 67° East 292 336 7,200 -1,800 Descending Boston Center
05:17PM 42.8714 -71.7489 68° East 281 323 5,400 -1,500 Descending Boston Center
05:18PM 42.8394 -71.6472 113° Southeast 254 292 4,300 -1,020 Descending Boston Center
05:19PM 42.8367 -71.5511 92° East 260 299 3,400 -900 Descending Boston Center